Aviation Digital Data Service (ADDS)

Output produced by METARs form (0225 UTC 14 December 2017)
found at http://www.aviationweather.gov/adds/metars/
 
METAR text: ZBTJ 140200Z VRB01MPS 7000 NSC M02/M07 Q1034 NOSIG
Conditions at: ZBTJ (TIANJIN/ZHANGGUI, CN) observed 0200 UTC 14 December 2017
Temperature: -2.0°C (28°F)
Dewpoint: -7.0°C (19°F) [RH = 69%]
Pressure (altimeter): 30.53 inches Hg (1034.0 mb)
Winds: variable direction winds at 2 MPH (2 knots; 1.0 m/s)
Visibility: 4 miles (7 km)
Ceiling: at least 12,000 feet AGL
Clouds: sky clear below 12,000 feet AGL
Weather: no significant weather observed at this time

METAR text: ZBTJ 140130Z VRB01MPS 6000 NSC M03/M08 Q1034 NOSIG
Conditions at: ZBTJ (TIANJIN/ZHANGGUI, CN) observed 0130 UTC 14 December 2017
Temperature: -3.0°C (27°F)
Dewpoint: -8.0°C (18°F) [RH = 68%]
Pressure (altimeter): 30.53 inches Hg (1034.0 mb)
Winds: variable direction winds at 2 MPH (2 knots; 1.0 m/s)
Visibility: 4 miles (6 km)
Ceiling: at least 12,000 feet AGL
Clouds: sky clear below 12,000 feet AGL
Weather: no significant weather observed at this time

METAR text: ZBTJ 140100Z VRB01MPS 6000 NSC M03/M08 Q1034 NOSIG
Conditions at: ZBTJ (TIANJIN/ZHANGGUI, CN) observed 0100 UTC 14 December 2017
Temperature: -3.0°C (27°F)
Dewpoint: -8.0°C (18°F) [RH = 68%]
Pressure (altimeter): 30.53 inches Hg (1034.0 mb)
Winds: variable direction winds at 2 MPH (2 knots; 1.0 m/s)
Visibility: 4 miles (6 km)
Ceiling: at least 12,000 feet AGL
Clouds: sky clear below 12,000 feet AGL
Weather: no significant weather observed at this time

METAR text: ZBTJ 140030Z 00000MPS 5000 HZ NSC M04/M08 Q1034 NOSIG
Conditions at: ZBTJ (TIANJIN/ZHANGGUI, CN) observed 0030 UTC 14 December 2017
Temperature: -4.0°C (25°F)
Dewpoint: -8.0°C (18°F) [RH = 74%]
Pressure (altimeter): 30.53 inches Hg (1034.0 mb)
Winds: calm
Visibility: 3 miles (5 km)
Ceiling: at least 12,000 feet AGL
Clouds: sky clear below 12,000 feet AGL
Weather: HZ  (haze)

METAR text: ZBTJ 140000Z 33001MPS 4000 HZ NSC M05/M08 Q1034 NOSIG
Conditions at: ZBTJ (TIANJIN/ZHANGGUI, CN) observed 0000 UTC 14 December 2017
Temperature: -5.0°C (23°F)
Dewpoint: -8.0°C (18°F) [RH = 79%]
Pressure (altimeter): 30.53 inches Hg (1034.0 mb)
Winds: from the NNW (330 degrees) at 2 MPH (2 knots; 1.0 m/s)
Visibility: 2.49 miles (4.01 km)
Ceiling: at least 12,000 feet AGL
Clouds: sky clear below 12,000 feet AGL
Weather: HZ  (haze)

METAR text: ZBTJ 132330Z 33002MPS 4000 HZ NSC M06/M09 Q1035 NOSIG
Conditions at: ZBTJ (TIANJIN/ZHANGGUI, CN) observed 2330 UTC 13 December 2017
Temperature: -6.0°C (21°F)
Dewpoint: -9.0°C (16°F) [RH = 79%]
Pressure (altimeter): 30.56 inches Hg (1035.0 mb)
Winds: from the NNW (330 degrees) at 5 MPH (4 knots; 2.1 m/s)
Visibility: 2.49 miles (4.01 km)
Ceiling: at least 12,000 feet AGL
Clouds: sky clear below 12,000 feet AGL
Weather: HZ  (haze)

METAR text: ZBTJ 132300Z 33002MPS 8000 NSC M05/M10 Q1034 NOSIG
Conditions at: ZBTJ (TIANJIN/ZHANGGUI, CN) observed 2300 UTC 13 December 2017
Temperature: -5.0°C (23°F)
Dewpoint: -10.0°C (14°F) [RH = 68%]
Pressure (altimeter): 30.53 inches Hg (1034.0 mb)
Winds: from the NNW (330 degrees) at 5 MPH (4 knots; 2.1 m/s)
Visibility: 5 miles (8 km)
Ceiling: at least 12,000 feet AGL
Clouds: sky clear below 12,000 feet AGL
Weather: no significant weather observed at this time

METAR text: ZBTJ 132230Z 32001MPS 8000 NSC M05/M10 Q1035 NOSIG
Conditions at: ZBTJ (TIANJIN/ZHANGGUI, CN) observed 2230 UTC 13 December 2017
Temperature: -5.0°C (23°F)
Dewpoint: -10.0°C (14°F) [RH = 68%]
Pressure (altimeter): 30.56 inches Hg (1035.0 mb)
Winds: from the NW (320 degrees) at 2 MPH (2 knots; 1.0 m/s)
Visibility: 5 miles (8 km)
Ceiling: at least 12,000 feet AGL
Clouds: sky clear below 12,000 feet AGL
Weather: no significant weather observed at this time

METAR text: ZBTJ 132200Z VRB01MPS 8000 NSC M06/M10 Q1034 NOSIG
Conditions at: ZBTJ (TIANJIN/ZHANGGUI, CN) observed 2200 UTC 13 December 2017
Temperature: -6.0°C (21°F)
Dewpoint: -10.0°C (14°F) [RH = 73%]
Pressure (altimeter): 30.53 inches Hg (1034.0 mb)
Winds: variable direction winds at 2 MPH (2 knots; 1.0 m/s)
Visibility: 5 miles (8 km)
Ceiling: at least 12,000 feet AGL
Clouds: sky clear below 12,000 feet AGL
Weather: no significant weather observed at this time

METAR text: ZBTJ 132130Z VRB01MPS 8000 NSC M06/M10 Q1034 NOSIG
Conditions at: ZBTJ (TIANJIN/ZHANGGUI, CN) observed 2130 UTC 13 December 2017
Temperature: -6.0°C (21°F)
Dewpoint: -10.0°C (14°F) [RH = 73%]
Pressure (altimeter): 30.53 inches Hg (1034.0 mb)
Winds: variable direction winds at 2 MPH (2 knots; 1.0 m/s)
Visibility: 5 miles (8 km)
Ceiling: at least 12,000 feet AGL
Clouds: sky clear below 12,000 feet AGL
Weather: no significant weather observed at this time

METAR text: ZBTJ 132100Z 05001MPS 8000 NSC M06/M10 Q1035 NOSIG
Conditions at: ZBTJ (TIANJIN/ZHANGGUI, CN) observed 2100 UTC 13 December 2017
Temperature: -6.0°C (21°F)
Dewpoint: -10.0°C (14°F) [RH = 73%]
Pressure (altimeter): 30.56 inches Hg (1035.0 mb)
Winds: from the NE (50 degrees) at 2 MPH (2 knots; 1.0 m/s)
Visibility: 5 miles (8 km)
Ceiling: at least 12,000 feet AGL
Clouds: sky clear below 12,000 feet AGL
Weather: no significant weather observed at this time

METAR text: ZBTJ 132030Z VRB01MPS 8000 NSC M05/M10 Q1035 NOSIG
Conditions at: ZBTJ (TIANJIN/ZHANGGUI, CN) observed 2030 UTC 13 December 2017
Temperature: -5.0°C (23°F)
Dewpoint: -10.0°C (14°F) [RH = 68%]
Pressure (altimeter): 30.56 inches Hg (1035.0 mb)
Winds: variable direction winds at 2 MPH (2 knots; 1.0 m/s)
Visibility: 5 miles (8 km)
Ceiling: at least 12,000 feet AGL
Clouds: sky clear below 12,000 feet AGL
Weather: no significant weather observed at this time

METAR text: ZBTJ 132000Z VRB01MPS 8000 NSC M05/M10 Q1035 NOSIG
Conditions at: ZBTJ (TIANJIN/ZHANGGUI, CN) observed 2000 UTC 13 December 2017
Temperature: -5.0°C (23°F)
Dewpoint: -10.0°C (14°F) [RH = 68%]
Pressure (altimeter): 30.56 inches Hg (1035.0 mb)
Winds: variable direction winds at 2 MPH (2 knots; 1.0 m/s)
Visibility: 5 miles (8 km)
Ceiling: at least 12,000 feet AGL
Clouds: sky clear below 12,000 feet AGL
Weather: no significant weather observed at this time

METAR text: ZBTJ 131930Z 00000MPS 8000 NSC M05/M12 Q1036 NOSIG
Conditions at: ZBTJ (TIANJIN/ZHANGGUI, CN) observed 1930 UTC 13 December 2017
Temperature: -5.0°C (23°F)
Dewpoint: -12.0°C (10°F) [RH = 58%]
Pressure (altimeter): 30.59 inches Hg (1036.0 mb)
Winds: calm
Visibility: 5 miles (8 km)
Ceiling: at least 12,000 feet AGL
Clouds: sky clear below 12,000 feet AGL
Weather: no significant weather observed at this time

METAR text: ZBTJ 131900Z 00000MPS 8000 NSC M05/M12 Q1036 NOSIG
Conditions at: ZBTJ (TIANJIN/ZHANGGUI, CN) observed 1900 UTC 13 December 2017
Temperature: -5.0°C (23°F)
Dewpoint: -12.0°C (10°F) [RH = 58%]
Pressure (altimeter): 30.59 inches Hg (1036.0 mb)
Winds: calm
Visibility: 5 miles (8 km)
Ceiling: at least 12,000 feet AGL
Clouds: sky clear below 12,000 feet AGL
Weather: no significant weather observed at this time

METAR text: ZBTJ 131830Z VRB01MPS 8000 NSC M05/M12 Q1036 NOSIG
Conditions at: ZBTJ (TIANJIN/ZHANGGUI, CN) observed 1830 UTC 13 December 2017
Temperature: -5.0°C (23°F)
Dewpoint: -12.0°C (10°F) [RH = 58%]
Pressure (altimeter): 30.59 inches Hg (1036.0 mb)
Winds: variable direction winds at 2 MPH (2 knots; 1.0 m/s)
Visibility: 5 miles (8 km)
Ceiling: at least 12,000 feet AGL
Clouds: sky clear below 12,000 feet AGL
Weather: no significant weather observed at this time

METAR text: ZBTJ 131800Z 34001MPS 8000 NSC M05/M13 Q1036 NOSIG
Conditions at: ZBTJ (TIANJIN/ZHANGGUI, CN) observed 1800 UTC 13 December 2017
Temperature: -5.0°C (23°F)
Dewpoint: -13.0°C (9°F) [RH = 53%]
Pressure (altimeter): 30.59 inches Hg (1036.0 mb)
Winds: from the NNW (340 degrees) at 2 MPH (2 knots; 1.0 m/s)
Visibility: 5 miles (8 km)
Ceiling: at least 12,000 feet AGL
Clouds: sky clear below 12,000 feet AGL
Weather: no significant weather observed at this time

METAR text: ZBTJ 131730Z VRB01MPS CAVOK M04/M14 Q1036 NOSIG
Conditions at: ZBTJ (TIANJIN/ZHANGGUI, CN) observed 1730 UTC 13 December 2017
Temperature: -4.0°C (25°F)
Dewpoint: -14.0°C (7°F) [RH = 46%]
Pressure (altimeter): 30.59 inches Hg (1036.0 mb)
Winds: variable direction winds at 2 MPH (2 knots; 1.0 m/s)
Visibility: 6 or more miles (10+ km)
Ceiling: ceiling and visibility are OK
Clouds: unknown
Weather: no significant weather observed at this time

METAR text: ZBTJ 131700Z 32001MPS CAVOK M04/M14 Q1036 NOSIG
Conditions at: ZBTJ (TIANJIN/ZHANGGUI, CN) observed 1700 UTC 13 December 2017
Temperature: -4.0°C (25°F)
Dewpoint: -14.0°C (7°F) [RH = 46%]
Pressure (altimeter): 30.59 inches Hg (1036.0 mb)
Winds: from the NW (320 degrees) at 2 MPH (2 knots; 1.0 m/s)
Visibility: 6 or more miles (10+ km)
Ceiling: ceiling and visibility are OK
Clouds: unknown
Weather: no significant weather observed at this time

METAR text: ZBTJ 131630Z VRB01MPS CAVOK M04/M15 Q1036 NOSIG
Conditions at: ZBTJ (TIANJIN/ZHANGGUI, CN) observed 1630 UTC 13 December 2017
Temperature: -4.0°C (25°F)
Dewpoint: -15.0°C (5°F) [RH = 42%]
Pressure (altimeter): 30.59 inches Hg (1036.0 mb)
Winds: variable direction winds at 2 MPH (2 knots; 1.0 m/s)
Visibility: 6 or more miles (10+ km)
Ceiling: ceiling and visibility are OK
Clouds: unknown
Weather: no significant weather observed at this time

METAR text: ZBTJ 131600Z VRB01MPS CAVOK M05/M13 Q1037 NOSIG
Conditions at: ZBTJ (TIANJIN/ZHANGGUI, CN) observed 1600 UTC 13 December 2017
Temperature: -5.0°C (23°F)
Dewpoint: -13.0°C (9°F) [RH = 53%]
Pressure (altimeter): 30.62 inches Hg (1037.0 mb)
Winds: variable direction winds at 2 MPH (2 knots; 1.0 m/s)
Visibility: 6 or more miles (10+ km)
Ceiling: ceiling and visibility are OK
Clouds: unknown
Weather: no significant weather observed at this time

METAR text: ZBTJ 131530Z 05002MPS 010V080 CAVOK M04/M14 Q1037 NOSIG
Conditions at: ZBTJ (TIANJIN/ZHANGGUI, CN) observed 1530 UTC 13 December 2017
Temperature: -4.0°C (25°F)
Dewpoint: -14.0°C (7°F) [RH = 46%]
Pressure (altimeter): 30.62 inches Hg (1037.0 mb)
Winds: from the NE (50 degrees) at 5 MPH (4 knots; 2.1 m/s)
Visibility: 6 or more miles (10+ km)
Ceiling: ceiling and visibility are OK
Clouds: unknown
Weather: no significant weather observed at this time

METAR text: ZBTJ 131500Z 06003MPS 350V110 CAVOK M05/M14 Q1037 NOSIG
Conditions at: ZBTJ (TIANJIN/ZHANGGUI, CN) observed 1500 UTC 13 December 2017
Temperature: -5.0°C (23°F)
Dewpoint: -14.0°C (7°F) [RH = 49%]
Pressure (altimeter): 30.62 inches Hg (1037.0 mb)
Winds: from the ENE (60 degrees) at 7 MPH (6 knots; 3.1 m/s)
Visibility: 6 or more miles (10+ km)
Ceiling: ceiling and visibility are OK
Clouds: unknown
Weather: no significant weather observed at this time

METAR text: ZBTJ 131430Z 35002MPS CAVOK M05/M15 Q1037 NOSIG
Conditions at: ZBTJ (TIANJIN/ZHANGGUI, CN) observed 1430 UTC 13 December 2017
Temperature: -5.0°C (23°F)
Dewpoint: -15.0°C (5°F) [RH = 45%]
Pressure (altimeter): 30.62 inches Hg (1037.0 mb)
Winds: from the N (350 degrees) at 5 MPH (4 knots; 2.1 m/s)
Visibility: 6 or more miles (10+ km)
Ceiling: ceiling and visibility are OK
Clouds: unknown
Weather: no significant weather observed at this time

METAR text: ZBTJ 131400Z 34001MPS CAVOK M05/M16 Q1037 NOSIG
Conditions at: ZBTJ (TIANJIN/ZHANGGUI, CN) observed 1400 UTC 13 December 2017
Temperature: -5.0°C (23°F)
Dewpoint: -16.0°C (3°F) [RH = 42%]
Pressure (altimeter): 30.62 inches Hg (1037.0 mb)
Winds: from the NNW (340 degrees) at 2 MPH (2 knots; 1.0 m/s)
Visibility: 6 or more miles (10+ km)
Ceiling: ceiling and visibility are OK
Clouds: unknown
Weather: no significant weather observed at this time

METAR text: ZBTJ 131330Z VRB01MPS CAVOK M05/M16 Q1037 NOSIG
Conditions at: ZBTJ (TIANJIN/ZHANGGUI, CN) observed 1330 UTC 13 December 2017
Temperature: -5.0°C (23°F)
Dewpoint: -16.0°C (3°F) [RH = 42%]
Pressure (altimeter): 30.62 inches Hg (1037.0 mb)
Winds: variable direction winds at 2 MPH (2 knots; 1.0 m/s)
Visibility: 6 or more miles (10+ km)
Ceiling: ceiling and visibility are OK
Clouds: unknown
Weather: no significant weather observed at this time

METAR text: ZBTJ 131300Z 31001MPS CAVOK M05/M16 Q1037 NOSIG
Conditions at: ZBTJ (TIANJIN/ZHANGGUI, CN) observed 1300 UTC 13 December 2017
Temperature: -5.0°C (23°F)
Dewpoint: -16.0°C (3°F) [RH = 42%]
Pressure (altimeter): 30.62 inches Hg (1037.0 mb)
Winds: from the NW (310 degrees) at 2 MPH (2 knots; 1.0 m/s)
Visibility: 6 or more miles (10+ km)
Ceiling: ceiling and visibility are OK
Clouds: unknown
Weather: no significant weather observed at this time

METAR text: ZBTJ 131230Z 00000MPS CAVOK M05/M16 Q1037 NOSIG
Conditions at: ZBTJ (TIANJIN/ZHANGGUI, CN) observed 1230 UTC 13 December 2017
Temperature: -5.0°C (23°F)
Dewpoint: -16.0°C (3°F) [RH = 42%]
Pressure (altimeter): 30.62 inches Hg (1037.0 mb)
Winds: calm
Visibility: 6 or more miles (10+ km)
Ceiling: ceiling and visibility are OK
Clouds: unknown
Weather: no significant weather observed at this time

METAR text: ZBTJ 131200Z 00000MPS CAVOK M05/M16 Q1037 NOSIG
Conditions at: ZBTJ (TIANJIN/ZHANGGUI, CN) observed 1200 UTC 13 December 2017
Temperature: -5.0°C (23°F)
Dewpoint: -16.0°C (3°F) [RH = 42%]
Pressure (altimeter): 30.62 inches Hg (1037.0 mb)
Winds: calm
Visibility: 6 or more miles (10+ km)
Ceiling: ceiling and visibility are OK
Clouds: unknown
Weather: no significant weather observed at this time

METAR text: ZBTJ 131130Z VRB01MPS CAVOK M04/M16 Q1037 NOSIG
Conditions at: ZBTJ (TIANJIN/ZHANGGUI, CN) observed 1130 UTC 13 December 2017
Temperature: -4.0°C (25°F)
Dewpoint: -16.0°C (3°F) [RH = 39%]
Pressure (altimeter): 30.62 inches Hg (1037.0 mb)
Winds: variable direction winds at 2 MPH (2 knots; 1.0 m/s)
Visibility: 6 or more miles (10+ km)
Ceiling: ceiling and visibility are OK
Clouds: unknown
Weather: no significant weather observed at this time

METAR text: ZBTJ 131100Z 15001MPS CAVOK M04/M15 Q1037 NOSIG
Conditions at: ZBTJ (TIANJIN/ZHANGGUI, CN) observed 1100 UTC 13 December 2017
Temperature: -4.0°C (25°F)
Dewpoint: -15.0°C (5°F) [RH = 42%]
Pressure (altimeter): 30.62 inches Hg (1037.0 mb)
Winds: from the SSE (150 degrees) at 2 MPH (2 knots; 1.0 m/s)
Visibility: 6 or more miles (10+ km)
Ceiling: ceiling and visibility are OK
Clouds: unknown
Weather: no significant weather observed at this time

METAR text: ZBTJ 131030Z 14001MPS CAVOK M04/M16 Q1036 NOSIG
Conditions at: ZBTJ (TIANJIN/ZHANGGUI, CN) observed 1030 UTC 13 December 2017
Temperature: -4.0°C (25°F)
Dewpoint: -16.0°C (3°F) [RH = 39%]
Pressure (altimeter): 30.59 inches Hg (1036.0 mb)
Winds: from the SE (140 degrees) at 2 MPH (2 knots; 1.0 m/s)
Visibility: 6 or more miles (10+ km)
Ceiling: ceiling and visibility are OK
Clouds: unknown
Weather: no significant weather observed at this time

METAR text: ZBTJ 131000Z 12002MPS CAVOK M04/M16 Q1036 NOSIG
Conditions at: ZBTJ (TIANJIN/ZHANGGUI, CN) observed 1000 UTC 13 December 2017
Temperature: -4.0°C (25°F)
Dewpoint: -16.0°C (3°F) [RH = 39%]
Pressure (altimeter): 30.59 inches Hg (1036.0 mb)
Winds: from the ESE (120 degrees) at 5 MPH (4 knots; 2.1 m/s)
Visibility: 6 or more miles (10+ km)
Ceiling: ceiling and visibility are OK
Clouds: unknown
Weather: no significant weather observed at this time

METAR text: ZBTJ 130930Z 11002MPS 060V130 CAVOK M02/M16 Q1036 NOSIG
Conditions at: ZBTJ (TIANJIN/ZHANGGUI, CN) observed 0930 UTC 13 December 2017
Temperature: -2.0°C (28°F)
Dewpoint: -16.0°C (3°F) [RH = 33%]
Pressure (altimeter): 30.59 inches Hg (1036.0 mb)
Winds: from the ESE (110 degrees) at 5 MPH (4 knots; 2.1 m/s)
Visibility: 6 or more miles (10+ km)
Ceiling: ceiling and visibility are OK
Clouds: unknown
Weather: no significant weather observed at this time

METAR text: ZBTJ 130900Z 11002MPS 040V120 CAVOK M02/M16 Q1036 NOSIG
Conditions at: ZBTJ (TIANJIN/ZHANGGUI, CN) observed 0900 UTC 13 December 2017
Temperature: -2.0°C (28°F)
Dewpoint: -16.0°C (3°F) [RH = 33%]
Pressure (altimeter): 30.59 inches Hg (1036.0 mb)
Winds: from the ESE (110 degrees) at 5 MPH (4 knots; 2.1 m/s)
Visibility: 6 or more miles (10+ km)
Ceiling: ceiling and visibility are OK
Clouds: unknown
Weather: no significant weather observed at this time

METAR text: ZBTJ 130830Z 07002MPS 020V100 CAVOK M02/M19 Q1036 NOSIG
Conditions at: ZBTJ (TIANJIN/ZHANGGUI, CN) observed 0830 UTC 13 December 2017
Temperature: -2.0°C (28°F)
Dewpoint: -19.0°C (-2°F) [RH = 26%]
Pressure (altimeter): 30.59 inches Hg (1036.0 mb)
Winds: from the ENE (70 degrees) at 5 MPH (4 knots; 2.1 m/s)
Visibility: 6 or more miles (10+ km)
Ceiling: ceiling and visibility are OK
Clouds: unknown
Weather: no significant weather observed at this time

METAR text: ZBTJ 130800Z 07002MPS 010V090 CAVOK M01/M19 Q1036 NOSIG
Conditions at: ZBTJ (TIANJIN/ZHANGGUI, CN) observed 0800 UTC 13 December 2017
Temperature: -1.0°C (30°F)
Dewpoint: -19.0°C (-2°F) [RH = 24%]
Pressure (altimeter): 30.59 inches Hg (1036.0 mb)
Winds: from the ENE (70 degrees) at 5 MPH (4 knots; 2.1 m/s)
Visibility: 6 or more miles (10+ km)
Ceiling: ceiling and visibility are OK
Clouds: unknown
Weather: no significant weather observed at this time

METAR text: ZBTJ 130730Z 06002MPS 020V090 CAVOK M01/M19 Q1036 NOSIG
Conditions at: ZBTJ (TIANJIN/ZHANGGUI, CN) observed 0730 UTC 13 December 2017
Temperature: -1.0°C (30°F)
Dewpoint: -19.0°C (-2°F) [RH = 24%]
Pressure (altimeter): 30.59 inches Hg (1036.0 mb)
Winds: from the ENE (60 degrees) at 5 MPH (4 knots; 2.1 m/s)
Visibility: 6 or more miles (10+ km)
Ceiling: ceiling and visibility are OK
Clouds: unknown
Weather: no significant weather observed at this time

METAR text: ZBTJ 130700Z 05002MPS CAVOK M00/M19 Q1036 NOSIG
Conditions at: ZBTJ (TIANJIN/ZHANGGUI, CN) observed 0700 UTC 13 December 2017
Temperature: 0.0°C (32°F)
Dewpoint: -19.0°C (-2°F) [RH = 22%]
Pressure (altimeter): 30.59 inches Hg (1036.0 mb)
Winds: from the NE (50 degrees) at 5 MPH (4 knots; 2.1 m/s)
Visibility: 6 or more miles (10+ km)
Ceiling: ceiling and visibility are OK
Clouds: unknown
Weather: no significant weather observed at this time

METAR text: ZBTJ 130630Z 04003MPS 360V070 CAVOK M00/M19 Q1036 NOSIG
Conditions at: ZBTJ (TIANJIN/ZHANGGUI, CN) observed 0630 UTC 13 December 2017
Temperature: 0.0°C (32°F)
Dewpoint: -19.0°C (-2°F) [RH = 22%]
Pressure (altimeter): 30.59 inches Hg (1036.0 mb)
Winds: from the NE (40 degrees) at 7 MPH (6 knots; 3.1 m/s)
Visibility: 6 or more miles (10+ km)
Ceiling: ceiling and visibility are OK
Clouds: unknown
Weather: no significant weather observed at this time

METAR text: ZBTJ 130600Z 01002MPS 310V080 CAVOK M00/M19 Q1036 NOSIG
Conditions at: ZBTJ (TIANJIN/ZHANGGUI, CN) observed 0600 UTC 13 December 2017
Temperature: 0.0°C (32°F)
Dewpoint: -19.0°C (-2°F) [RH = 22%]
Pressure (altimeter): 30.59 inches Hg (1036.0 mb)
Winds: from the N (10 degrees) at 5 MPH (4 knots; 2.1 m/s)
Visibility: 6 or more miles (10+ km)
Ceiling: ceiling and visibility are OK
Clouds: unknown
Weather: no significant weather observed at this time

METAR text: ZBTJ 130530Z VRB01MPS CAVOK M00/M22 Q1036 NOSIG
Conditions at: ZBTJ (TIANJIN/ZHANGGUI, CN) observed 0530 UTC 13 December 2017
Temperature: 0.0°C (32°F)
Dewpoint: -22.0°C (-8°F) [RH = 17%]
Pressure (altimeter): 30.59 inches Hg (1036.0 mb)
Winds: variable direction winds at 2 MPH (2 knots; 1.0 m/s)
Visibility: 6 or more miles (10+ km)
Ceiling: ceiling and visibility are OK
Clouds: unknown
Weather: no significant weather observed at this time

METAR text: ZBTJ 130500Z 05002MPS 010V090 CAVOK M00/M18 Q1036 NOSIG
Conditions at: ZBTJ (TIANJIN/ZHANGGUI, CN) observed 0500 UTC 13 December 2017
Temperature: 0.0°C (32°F)
Dewpoint: -18.0°C (-0°F) [RH = 24%]
Pressure (altimeter): 30.59 inches Hg (1036.0 mb)
Winds: from the NE (50 degrees) at 5 MPH (4 knots; 2.1 m/s)
Visibility: 6 or more miles (10+ km)
Ceiling: ceiling and visibility are OK
Clouds: unknown
Weather: no significant weather observed at this time

METAR text: ZBTJ 130430Z 03003MPS 350V050 CAVOK M01/M19 Q1037 NOSIG
Conditions at: ZBTJ (TIANJIN/ZHANGGUI, CN) observed 0430 UTC 13 December 2017
Temperature: -1.0°C (30°F)
Dewpoint: -19.0°C (-2°F) [RH = 24%]
Pressure (altimeter): 30.62 inches Hg (1037.0 mb)
Winds: from the NNE (30 degrees) at 7 MPH (6 knots; 3.1 m/s)
Visibility: 6 or more miles (10+ km)
Ceiling: ceiling and visibility are OK
Clouds: unknown
Weather: no significant weather observed at this time

METAR text: ZBTJ 130400Z 02004MPS 350V060 CAVOK M01/M18 Q1037 NOSIG
Conditions at: ZBTJ (TIANJIN/ZHANGGUI, CN) observed 0400 UTC 13 December 2017
Temperature: -1.0°C (30°F)
Dewpoint: -18.0°C (-0°F) [RH = 26%]
Pressure (altimeter): 30.62 inches Hg (1037.0 mb)
Winds: from the NNE (20 degrees) at 9 MPH (8 knots; 4.2 m/s)
Visibility: 6 or more miles (10+ km)
Ceiling: ceiling and visibility are OK
Clouds: unknown
Weather: no significant weather observed at this time

METAR text: ZBTJ 130330Z 02003MPS 350V050 8000 NSC M02/M16 Q1038 NOSIG
Conditions at: ZBTJ (TIANJIN/ZHANGGUI, CN) observed 0330 UTC 13 December 2017
Temperature: -2.0°C (28°F)
Dewpoint: -16.0°C (3°F) [RH = 33%]
Pressure (altimeter): 30.65 inches Hg (1038.0 mb)
Winds: from the NNE (20 degrees) at 7 MPH (6 knots; 3.1 m/s)
Visibility: 5 miles (8 km)
Ceiling: at least 12,000 feet AGL
Clouds: sky clear below 12,000 feet AGL
Weather: no significant weather observed at this time

METAR text: ZBTJ 130300Z 03003MPS 350V060 8000 NSC M02/M14 Q1038 NOSIG
Conditions at: ZBTJ (TIANJIN/ZHANGGUI, CN) observed 0300 UTC 13 December 2017
Temperature: -2.0°C (28°F)
Dewpoint: -14.0°C (7°F) [RH = 39%]
Pressure (altimeter): 30.65 inches Hg (1038.0 mb)
Winds: from the NNE (30 degrees) at 7 MPH (6 knots; 3.1 m/s)
Visibility: 5 miles (8 km)
Ceiling: at least 12,000 feet AGL
Clouds: sky clear below 12,000 feet AGL
Weather: no significant weather observed at this time

METAR text: ZBTJ 130230Z 04002MPS 350V070 6000 NSC M03/M14 Q1038 NOSIG
Conditions at: ZBTJ (TIANJIN/ZHANGGUI, CN) observed 0230 UTC 13 December 2017
Temperature: -3.0°C (27°F)
Dewpoint: -14.0°C (7°F) [RH = 42%]
Pressure (altimeter): 30.65 inches Hg (1038.0 mb)
Winds: from the NE (40 degrees) at 5 MPH (4 knots; 2.1 m/s)
Visibility: 4 miles (6 km)
Ceiling: at least 12,000 feet AGL
Clouds: sky clear below 12,000 feet AGL
Weather: no significant weather observed at this time

METAR text: ZBTJ 130200Z 36002MPS 320V050 5000 HZ NSC M04/M10 Q1038 NOSIG
Conditions at: ZBTJ (TIANJIN/ZHANGGUI, CN) observed 0200 UTC 13 December 2017
Temperature: -4.0°C (25°F)
Dewpoint: -10.0°C (14°F) [RH = 63%]
Pressure (altimeter): 30.65 inches Hg (1038.0 mb)
Winds: from the N (360 degrees) at 5 MPH (4 knots; 2.1 m/s)
Visibility: 3 miles (5 km)
Ceiling: at least 12,000 feet AGL
Clouds: sky clear below 12,000 feet AGL
Weather: HZ  (haze)

METAR text: ZBTJ 130130Z 34002MPS 320V020 5000 HZ NSC M05/M10 Q1038 NOSIG
Conditions at: ZBTJ (TIANJIN/ZHANGGUI, CN) observed 0130 UTC 13 December 2017
Temperature: -5.0°C (23°F)
Dewpoint: -10.0°C (14°F) [RH = 68%]
Pressure (altimeter): 30.65 inches Hg (1038.0 mb)
Winds: from the NNW (340 degrees) at 5 MPH (4 knots; 2.1 m/s)
Visibility: 3 miles (5 km)
Ceiling: at least 12,000 feet AGL
Clouds: sky clear below 12,000 feet AGL
Weather: HZ  (haze)

METAR text: ZBTJ 130100Z 36002MPS 5000 HZ NSC M06/M10 Q1038 NOSIG
Conditions at: ZBTJ (TIANJIN/ZHANGGUI, CN) observed 0100 UTC 13 December 2017
Temperature: -6.0°C (21°F)
Dewpoint: -10.0°C (14°F) [RH = 73%]
Pressure (altimeter): 30.65 inches Hg (1038.0 mb)
Winds: from the N (360 degrees) at 5 MPH (4 knots; 2.1 m/s)
Visibility: 3 miles (5 km)
Ceiling: at least 12,000 feet AGL
Clouds: sky clear below 12,000 feet AGL
Weather: HZ  (haze)

METAR text: ZBTJ 130030Z 33002MPS 310V010 5000 HZ NSC M08/M11 Q1038 NOSIG
Conditions at: ZBTJ (TIANJIN/ZHANGGUI, CN) observed 0030 UTC 13 December 2017
Temperature: -8.0°C (18°F)
Dewpoint: -11.0°C (12°F) [RH = 79%]
Pressure (altimeter): 30.65 inches Hg (1038.0 mb)
Winds: from the NNW (330 degrees) at 5 MPH (4 knots; 2.1 m/s)
Visibility: 3 miles (5 km)
Ceiling: at least 12,000 feet AGL
Clouds: sky clear below 12,000 feet AGL
Weather: HZ  (haze)

METAR text: ZBTJ 130000Z 33002MPS 6000 NSC M09/M12 Q1037 NOSIG
Conditions at: ZBTJ (TIANJIN/ZHANGGUI, CN) observed 0000 UTC 13 December 2017
Temperature: -9.0°C (16°F)
Dewpoint: -12.0°C (10°F) [RH = 79%]
Pressure (altimeter): 30.62 inches Hg (1037.0 mb)
Winds: from the NNW (330 degrees) at 5 MPH (4 knots; 2.1 m/s)
Visibility: 4 miles (6 km)
Ceiling: at least 12,000 feet AGL
Clouds: sky clear below 12,000 feet AGL
Weather: no significant weather observed at this time

METAR text: ZBTJ 122330Z 33003MPS 7000 NSC M09/M13 Q1037 NOSIG
Conditions at: ZBTJ (TIANJIN/ZHANGGUI, CN) observed 2330 UTC 12 December 2017
Temperature: -9.0°C (16°F)
Dewpoint: -13.0°C (9°F) [RH = 73%]
Pressure (altimeter): 30.62 inches Hg (1037.0 mb)
Winds: from the NNW (330 degrees) at 7 MPH (6 knots; 3.1 m/s)
Visibility: 4 miles (7 km)
Ceiling: at least 12,000 feet AGL
Clouds: sky clear below 12,000 feet AGL
Weather: no significant weather observed at this time

METAR text: ZBTJ 122300Z 34002MPS 7000 NSC M08/M13 Q1036 NOSIG
Conditions at: ZBTJ (TIANJIN/ZHANGGUI, CN) observed 2300 UTC 12 December 2017
Temperature: -8.0°C (18°F)
Dewpoint: -13.0°C (9°F) [RH = 67%]
Pressure (altimeter): 30.59 inches Hg (1036.0 mb)
Winds: from the NNW (340 degrees) at 5 MPH (4 knots; 2.1 m/s)
Visibility: 4 miles (7 km)
Ceiling: at least 12,000 feet AGL
Clouds: sky clear below 12,000 feet AGL
Weather: no significant weather observed at this time

METAR text: ZBTJ 122230Z 31001MPS 7000 NSC M08/M12 Q1036 NOSIG
Conditions at: ZBTJ (TIANJIN/ZHANGGUI, CN) observed 2230 UTC 12 December 2017
Temperature: -8.0°C (18°F)
Dewpoint: -12.0°C (10°F) [RH = 73%]
Pressure (altimeter): 30.59 inches Hg (1036.0 mb)
Winds: from the NW (310 degrees) at 2 MPH (2 knots; 1.0 m/s)
Visibility: 4 miles (7 km)
Ceiling: at least 12,000 feet AGL
Clouds: sky clear below 12,000 feet AGL
Weather: no significant weather observed at this time

METAR text: ZBTJ 122200Z 32002MPS 7000 NSC M09/M12 Q1036 NOSIG
Conditions at: ZBTJ (TIANJIN/ZHANGGUI, CN) observed 2200 UTC 12 December 2017
Temperature: -9.0°C (16°F)
Dewpoint: -12.0°C (10°F) [RH = 79%]
Pressure (altimeter): 30.59 inches Hg (1036.0 mb)
Winds: from the NW (320 degrees) at 5 MPH (4 knots; 2.1 m/s)
Visibility: 4 miles (7 km)
Ceiling: at least 12,000 feet AGL
Clouds: sky clear below 12,000 feet AGL
Weather: no significant weather observed at this time

METAR text: ZBTJ 122130Z 33003MPS 7000 NSC M09/M13 Q1035 NOSIG
Conditions at: ZBTJ (TIANJIN/ZHANGGUI, CN) observed 2130 UTC 12 December 2017
Temperature: -9.0°C (16°F)
Dewpoint: -13.0°C (9°F) [RH = 73%]
Pressure (altimeter): 30.56 inches Hg (1035.0 mb)
Winds: from the NNW (330 degrees) at 7 MPH (6 knots; 3.1 m/s)
Visibility: 4 miles (7 km)
Ceiling: at least 12,000 feet AGL
Clouds: sky clear below 12,000 feet AGL
Weather: no significant weather observed at this time

METAR text: ZBTJ 122100Z 33002MPS 8000 NSC M08/M13 Q1035 NOSIG
Conditions at: ZBTJ (TIANJIN/ZHANGGUI, CN) observed 2100 UTC 12 December 2017
Temperature: -8.0°C (18°F)
Dewpoint: -13.0°C (9°F) [RH = 67%]
Pressure (altimeter): 30.56 inches Hg (1035.0 mb)
Winds: from the NNW (330 degrees) at 5 MPH (4 knots; 2.1 m/s)
Visibility: 5 miles (8 km)
Ceiling: at least 12,000 feet AGL
Clouds: sky clear below 12,000 feet AGL
Weather: no significant weather observed at this time

METAR text: ZBTJ 122030Z 35003MPS 8000 NSC M10/M13 Q1035 NOSIG
Conditions at: ZBTJ (TIANJIN/ZHANGGUI, CN) observed 2030 UTC 12 December 2017
Temperature: -10.0°C (14°F)
Dewpoint: -13.0°C (9°F) [RH = 79%]
Pressure (altimeter): 30.56 inches Hg (1035.0 mb)
Winds: from the N (350 degrees) at 7 MPH (6 knots; 3.1 m/s)
Visibility: 5 miles (8 km)
Ceiling: at least 12,000 feet AGL
Clouds: sky clear below 12,000 feet AGL
Weather: no significant weather observed at this time

METAR text: ZBTJ 122000Z 34003MPS 8000 NSC M08/M13 Q1035 NOSIG
Conditions at: ZBTJ (TIANJIN/ZHANGGUI, CN) observed 2000 UTC 12 December 2017
Temperature: -8.0°C (18°F)
Dewpoint: -13.0°C (9°F) [RH = 67%]
Pressure (altimeter): 30.56 inches Hg (1035.0 mb)
Winds: from the NNW (340 degrees) at 7 MPH (6 knots; 3.1 m/s)
Visibility: 5 miles (8 km)
Ceiling: at least 12,000 feet AGL
Clouds: sky clear below 12,000 feet AGL
Weather: no significant weather observed at this time

METAR text: ZBTJ 121930Z 34002MPS CAVOK M08/M13 Q1035 NOSIG
Conditions at: ZBTJ (TIANJIN/ZHANGGUI, CN) observed 1930 UTC 12 December 2017
Temperature: -8.0°C (18°F)
Dewpoint: -13.0°C (9°F) [RH = 67%]
Pressure (altimeter): 30.56 inches Hg (1035.0 mb)
Winds: from the NNW (340 degrees) at 5 MPH (4 knots; 2.1 m/s)
Visibility: 6 or more miles (10+ km)
Ceiling: ceiling and visibility are OK
Clouds: unknown
Weather: no significant weather observed at this time

METAR text: ZBTJ 121900Z VRB01MPS CAVOK M07/M14 Q1035 NOSIG
Conditions at: ZBTJ (TIANJIN/ZHANGGUI, CN) observed 1900 UTC 12 December 2017
Temperature: -7.0°C (19°F)
Dewpoint: -14.0°C (7°F) [RH = 57%]
Pressure (altimeter): 30.56 inches Hg (1035.0 mb)
Winds: variable direction winds at 2 MPH (2 knots; 1.0 m/s)
Visibility: 6 or more miles (10+ km)
Ceiling: ceiling and visibility are OK
Clouds: unknown
Weather: no significant weather observed at this time

METAR text: ZBTJ 121830Z VRB01MPS CAVOK M07/M12 Q1035 NOSIG
Conditions at: ZBTJ (TIANJIN/ZHANGGUI, CN) observed 1830 UTC 12 December 2017
Temperature: -7.0°C (19°F)
Dewpoint: -12.0°C (10°F) [RH = 67%]
Pressure (altimeter): 30.56 inches Hg (1035.0 mb)
Winds: variable direction winds at 2 MPH (2 knots; 1.0 m/s)
Visibility: 6 or more miles (10+ km)
Ceiling: ceiling and visibility are OK
Clouds: unknown
Weather: no significant weather observed at this time

METAR text: ZBTJ 121800Z VRB01MPS CAVOK M07/M13 Q1035 NOSIG
Conditions at: ZBTJ (TIANJIN/ZHANGGUI, CN) observed 1800 UTC 12 December 2017
Temperature: -7.0°C (19°F)
Dewpoint: -13.0°C (9°F) [RH = 62%]
Pressure (altimeter): 30.56 inches Hg (1035.0 mb)
Winds: variable direction winds at 2 MPH (2 knots; 1.0 m/s)
Visibility: 6 or more miles (10+ km)
Ceiling: ceiling and visibility are OK
Clouds: unknown
Weather: no significant weather observed at this time

METAR text: ZBTJ 121730Z VRB01MPS CAVOK M07/M13 Q1034 NOSIG
Conditions at: ZBTJ (TIANJIN/ZHANGGUI, CN) observed 1730 UTC 12 December 2017
Temperature: -7.0°C (19°F)
Dewpoint: -13.0°C (9°F) [RH = 62%]
Pressure (altimeter): 30.53 inches Hg (1034.0 mb)
Winds: variable direction winds at 2 MPH (2 knots; 1.0 m/s)
Visibility: 6 or more miles (10+ km)
Ceiling: ceiling and visibility are OK
Clouds: unknown
Weather: no significant weather observed at this time

METAR text: ZBTJ 121700Z 07001MPS CAVOK M07/M13 Q1034 NOSIG
Conditions at: ZBTJ (TIANJIN/ZHANGGUI, CN) observed 1700 UTC 12 December 2017
Temperature: -7.0°C (19°F)
Dewpoint: -13.0°C (9°F) [RH = 62%]
Pressure (altimeter): 30.53 inches Hg (1034.0 mb)
Winds: from the ENE (70 degrees) at 2 MPH (2 knots; 1.0 m/s)
Visibility: 6 or more miles (10+ km)
Ceiling: ceiling and visibility are OK
Clouds: unknown
Weather: no significant weather observed at this time

METAR text: ZBTJ 121630Z 06001MPS CAVOK M07/M12 Q1034 NOSIG
Conditions at: ZBTJ (TIANJIN/ZHANGGUI, CN) observed 1630 UTC 12 December 2017
Temperature: -7.0°C (19°F)
Dewpoint: -12.0°C (10°F) [RH = 67%]
Pressure (altimeter): 30.53 inches Hg (1034.0 mb)
Winds: from the ENE (60 degrees) at 2 MPH (2 knots; 1.0 m/s)
Visibility: 6 or more miles (10+ km)
Ceiling: ceiling and visibility are OK
Clouds: unknown
Weather: no significant weather observed at this time

METAR text: ZBTJ 121600Z 06002MPS CAVOK M07/M12 Q1034 NOSIG
Conditions at: ZBTJ (TIANJIN/ZHANGGUI, CN) observed 1600 UTC 12 December 2017
Temperature: -7.0°C (19°F)
Dewpoint: -12.0°C (10°F) [RH = 67%]
Pressure (altimeter): 30.53 inches Hg (1034.0 mb)
Winds: from the ENE (60 degrees) at 5 MPH (4 knots; 2.1 m/s)
Visibility: 6 or more miles (10+ km)
Ceiling: ceiling and visibility are OK
Clouds: unknown
Weather: no significant weather observed at this time

METAR text: ZBTJ 121530Z 08001MPS CAVOK M07/M12 Q1034 NOSIG
Conditions at: ZBTJ (TIANJIN/ZHANGGUI, CN) observed 1530 UTC 12 December 2017
Temperature: -7.0°C (19°F)
Dewpoint: -12.0°C (10°F) [RH = 67%]
Pressure (altimeter): 30.53 inches Hg (1034.0 mb)
Winds: from the E (80 degrees) at 2 MPH (2 knots; 1.0 m/s)
Visibility: 6 or more miles (10+ km)
Ceiling: ceiling and visibility are OK
Clouds: unknown
Weather: no significant weather observed at this time

METAR text: ZBTJ 121500Z 00000MPS CAVOK M07/M12 Q1034 NOSIG
Conditions at: ZBTJ (TIANJIN/ZHANGGUI, CN) observed 1500 UTC 12 December 2017
Temperature: -7.0°C (19°F)
Dewpoint: -12.0°C (10°F) [RH = 67%]
Pressure (altimeter): 30.53 inches Hg (1034.0 mb)
Winds: calm
Visibility: 6 or more miles (10+ km)
Ceiling: ceiling and visibility are OK
Clouds: unknown
Weather: no significant weather observed at this time

METAR text: ZBTJ 121430Z 00000MPS CAVOK M06/M12 Q1034 NOSIG
Conditions at: ZBTJ (TIANJIN/ZHANGGUI, CN) observed 1430 UTC 12 December 2017
Temperature: -6.0°C (21°F)
Dewpoint: -12.0°C (10°F) [RH = 62%]
Pressure (altimeter): 30.53 inches Hg (1034.0 mb)
Winds: calm
Visibility: 6 or more miles (10+ km)
Ceiling: ceiling and visibility are OK
Clouds: unknown
Weather: no significant weather observed at this time